Time;durP1;ratioP1;P1;durP2;ratioP2;P2;SDS_P1;SDS_P2;PMS_P1;PMS_P2;Temp;Humidity;BMP_temperature;BMP_pressure;BME280_temperature;BME280_humidity;BME280_pressure;Samples;Min_cycle;Max_cycle;Signal;HPM_P1;HPM_P2
2023/12/13 00:00:00;;;;;;;9.50;5.00;;;;;;;1.58;85.90;95019.45;110281;1277;22134;-78
2023/12/13 00:02:59;;;;;;;11.00;5.90;;;;;;;1.52;85.27;95005.38;110323;1277;22129;-78
2023/12/13 00:05:27;;;;;;;5.80;3.30;;;;;;;1.53;85.57;94998.79;110372;1277;22322;-78
2023/12/13 00:07:56;;;;;;;4.60;2.30;;;;;;;1.53;85.85;95002.43;110342;1277;22136;-78
2023/12/13 00:10:24;;;;;;;6.30;3.30;;;;;;;1.55;85.79;94996.38;110358;1277;22347;-78
2023/12/13 00:12:53;;;;;;;13.80;6.70;;;;;;;1.59;86.40;94991.72;110357;1277;22143;-78
2023/12/13 00:15:21;;;;;;;6.30;3.90;;;;;;;1.68;86.41;94987.44;110373;1277;22143;-78
2023/12/13 00:17:49;;;;;;;12.80;5.70;;;;;;;1.72;86.50;94982.77;110295;1277;22155;-77
2023/12/13 00:20:18;;;;;;;21.20;9.50;;;;;;;1.77;86.56;94983.86;110362;1277;22139;-78
2023/12/13 00:22:46;;;;;;;17.70;8.90;;;;;;;1.78;86.37;94986.45;110344;1277;22787;-77
2023/12/13 00:25:14;;;;;;;16.90;8.50;;;;;;;1.77;86.14;94982.48;110362;1277;22141;-78
2023/12/13 00:27:42;;;;;;;19.70;9.90;;;;;;;1.74;85.86;94979.85;110366;1277;22214;-78
2023/12/13 00:30:11;;;;;;;13.70;6.40;;;;;;;1.71;85.69;94983.98;110369;1277;22135;-78
2023/12/13 00:32:39;;;;;;;27.50;13.50;;;;;;;1.65;86.39;94987.08;110303;1277;22289;-78
2023/12/13 00:35:07;;;;;;;27.70;13.80;;;;;;;1.61;86.37;94989.64;110357;1277;22120;-78
2023/12/13 00:37:35;;;;;;;20.00;10.10;;;;;;;1.61;86.03;94995.36;110366;1260;22216;-78
2023/12/13 00:40:06;;;;;;;15.40;8.40;;;;;;;1.58;85.87;94995.70;110336;1277;22141;-77
2023/12/13 00:42:34;;;;;;;21.60;10.80;;;;;;;1.60;86.19;94986.52;110306;1277;22110;-78
2023/12/13 00:45:04;;;;;;;21.50;10.50;;;;;;;1.62;86.47;94980.98;110354;1277;22097;-78
2023/12/13 00:47:33;;;;;;;19.80;9.40;;;;;;;1.60;86.66;94973.52;110346;1277;22158;-78
2023/12/13 00:50:02;;;;;;;7.30;4.50;;;;;;;1.63;86.33;94972.16;110413;1276;22469;-78
2023/12/13 00:52:32;;;;;;;10.80;5.40;;;;;;;1.68;86.42;94971.84;110223;1277;22216;-78
2023/12/13 00:55:04;;;;;;;7.80;4.20;;;;;;;1.76;86.69;94972.23;110342;1277;22188;-78
2023/12/13 00:57:33;;;;;;;16.20;7.80;;;;;;;1.80;86.94;94969.12;110345;1277;22944;-78
2023/12/13 01:00:01;;;;;;;16.40;9.30;;;;;;;1.76;86.42;94965.64;110379;1277;22140;-78
2023/12/13 01:02:30;;;;;;;13.80;6.40;;;;;;;1.77;86.38;94966.16;110346;1277;22932;-78
2023/12/13 01:04:58;;;;;;;60.20;23.40;;;;;;;1.84;86.65;94960.83;110346;1277;22327;-78
2023/12/13 01:07:26;;;;;;;27.70;14.60;;;;;;;1.83;86.08;94956.13;110374;1277;22118;-78
2023/12/13 01:09:54;;;;;;;17.20;9.00;;;;;;;1.84;85.94;94953.54;110356;1277;22227;-78
2023/12/13 01:12:22;;;;;;;10.40;6.00;;;;;;;1.87;86.29;94953.02;110350;1277;22119;-78
2023/12/13 01:14:51;;;;;;;6.40;4.10;;;;;;;1.95;86.74;94945.43;110366;1277;22751;-78
2023/12/13 01:17:19;;;;;;;13.20;5.80;;;;;;;2.03;86.77;94930.89;110359;1277;22095;-78
2023/12/13 01:19:47;;;;;;;14.60;7.30;;;;;;;2.08;86.76;94927.45;110379;1277;22127;-78
2023/12/13 01:22:15;;;;;;;9.80;5.50;;;;;;;2.14;86.87;94927.64;110342;1277;22110;-78
2023/12/13 01:24:44;;;;;;;16.10;7.90;;;;;;;2.19;86.87;94922.43;110290;1277;22201;-77
2023/12/13 01:27:12;;;;;;;19.00;8.60;;;;;;;2.20;86.57;94913.23;110361;1277;22893;-77
2023/12/13 01:29:40;;;;;;;20.70;10.20;;;;;;;2.23;86.14;94909.09;110338;1277;22105;-78
2023/12/13 01:32:09;;;;;;;14.50;7.20;;;;;;;2.23;85.75;94903.88;110355;1277;23006;-78
2023/12/13 01:34:37;;;;;;;18.20;9.00;;;;;;;2.27;86.14;94900.95;110356;1277;22258;-78
2023/12/13 01:37:05;;;;;;;18.90;9.20;;;;;;;2.28;86.27;94903.73;110336;1277;22594;-78
2023/12/13 01:39:33;;;;;;;15.80;9.10;;;;;;;2.29;86.25;94895.40;110376;1277;22143;-78
2023/12/13 01:42:01;;;;;;;16.90;9.60;;;;;;;2.28;86.33;94895.58;110353;1277;22730;-78
2023/12/13 01:44:29;;;;;;;21.50;11.70;;;;;;;2.26;86.89;94887.58;110366;1277;22156;-77
2023/12/13 01:46:59;;;;;;;18.60;11.20;;;;;;;2.21;87.50;94889.83;110356;1271;22269;-77
2023/12/13 01:49:27;;;;;;;22.10;12.50;;;;;;;2.16;87.77;94890.16;110306;1267;22337;-78
2023/12/13 01:51:55;;;;;;;21.20;11.40;;;;;;;2.16;87.50;94884.44;110364;1277;22222;-78
2023/12/13 01:54:24;;;;;;;25.70;13.60;;;;;;;2.16;88.11;94873.67;110347;1277;22186;-78
2023/12/13 01:56:52;;;;;;;25.90;13.90;;;;;;;2.13;89.57;94867.77;110352;1277;22157;-78
2023/12/13 01:59:22;;;;;;;25.50;14.00;;;;;;;2.13;89.18;94868.64;110442;1276;22103;-77
2023/12/13 02:01:52;;;;;;;26.00;13.10;;;;;;;2.13;89.44;94859.10;110345;1277;23259;-77
2023/12/13 02:04:27;;;;;;;26.40;13.30;;;;;;;2.13;89.63;94860.30;110331;1277;22434;-77
2023/12/13 02:06:55;;;;;;;37.30;17.00;;;;;;;2.14;89.65;94851.63;110343;1277;22148;-77
2023/12/13 02:09:24;;;;;;;27.60;16.40;;;;;;;2.15;90.15;94849.39;110334;1277;22271;-77
2023/12/13 02:11:52;;;;;;;32.00;16.40;;;;;;;2.16;90.60;94848.70;110314;1277;22557;-78
2023/12/13 02:14:20;;;;;;;31.00;17.90;;;;;;;2.21;90.03;94848.52;110346;1277;22169;-78
2023/12/13 02:16:49;;;;;;;31.50;16.60;;;;;;;2.25;90.12;94851.48;110261;1277;22218;-77
2023/12/13 02:19:17;;;;;;;31.80;17.10;;;;;;;2.28;90.45;94845.58;110352;1277;22336;-77
2023/12/13 02:21:45;;;;;;;30.50;17.10;;;;;;;2.33;90.48;94837.09;110353;1277;22100;-78
2023/12/13 02:24:14;;;;;;;28.80;16.50;;;;;;;2.39;90.25;94831.20;110253;1277;22136;-78
2023/12/13 02:26:43;;;;;;;27.90;15.10;;;;;;;2.45;89.81;94829.46;110354;1277;22097;-78
2023/12/13 02:29:12;;;;;;;29.20;16.00;;;;;;;2.46;89.85;94830.67;110306;1277;22144;-78
2023/12/13 02:31:41;;;;;;;31.20;16.20;;;;;;;2.49;90.05;94828.59;110353;1277;22926;-78
2023/12/13 02:34:09;;;;;;;31.00;16.60;;;;;;;2.57;89.91;94822.87;110308;1277;22898;-78
2023/12/13 02:36:38;;;;;;;32.50;15.70;;;;;;;2.66;90.10;94822.17;110332;1277;22842;-78
2023/12/13 02:39:06;;;;;;;32.10;17.20;;;;;;;2.71;89.82;94820.09;110323;1277;22276;-78
2023/12/13 02:41:34;;;;;;;28.30;16.20;;;;;;;2.69;89.33;94808.45;110313;1277;22332;-78
2023/12/13 02:44:02;;;;;;;28.80;15.40;;;;;;;2.72;89.16;94805.66;110334;1277;22154;-79
2023/12/13 02:46:30;;;;;;;29.20;16.00;;;;;;;2.77;89.18;94807.74;110330;1277;22125;-78
2023/12/13 02:48:59;;;;;;;29.90;15.50;;;;;;;2.79;89.09;94810.17;110315;1277;22118;-78
2023/12/13 02:51:27;;;;;;;37.20;16.00;;;;;;;2.80;89.07;94806.52;110339;1277;22144;-78
2023/12/13 02:53:55;;;;;;;30.00;16.50;;;;;;;2.83;89.25;94800.27;110328;1277;22984;-78
2023/12/13 02:56:23;;;;;;;27.60;15.60;;;;;;;2.83;89.25;94792.27;110310;1277;22331;-78
2023/12/13 02:58:52;;;;;;;32.10;16.60;;;;;;;2.87;89.19;94789.66;110329;1277;22119;-79
2023/12/13 03:01:20;;;;;;;60.50;27.80;;;;;;;2.85;88.70;94781.49;110320;1277;22189;-78
2023/12/13 03:03:48;;;;;;;27.70;15.70;;;;;;;2.80;88.62;94771.44;110485;1276;22163;-78
2023/12/13 03:06:17;;;;;;;26.90;15.40;;;;;;;2.76;88.91;94770.92;110340;1277;22175;-78
2023/12/13 03:08:45;;;;;;;35.70;17.70;;;;;;;2.70;89.05;94767.64;110306;1277;22139;-78
2023/12/13 03:11:13;;;;;;;55.10;24.60;;;;;;;2.63;89.18;94761.91;110325;1277;22110;-79
2023/12/13 03:13:41;;;;;;;30.10;17.10;;;;;;;2.61;89.77;94756.71;110272;1277;22119;-79
2023/12/13 03:16:09;;;;;;;30.50;17.60;;;;;;;2.56;90.16;94750.64;110320;1277;22135;-78
2023/12/13 03:18:38;;;;;;;30.20;16.90;;;;;;;2.58;90.06;94745.94;110326;1277;22143;-78
2023/12/13 03:21:06;;;;;;;31.80;17.70;;;;;;;2.58;90.02;94741.26;110299;1277;22856;-79
2023/12/13 03:23:34;;;;;;;25.60;14.50;;;;;;;2.60;89.90;94743.70;110324;1277;22253;-79
2023/12/13 03:26:02;;;;;;;30.80;17.00;;;;;;;2.56;89.98;94741.09;110342;1277;22158;-80
2023/12/13 03:28:31;;;;;;;32.90;16.50;;;;;;;2.48;90.44;94734.86;110297;1277;22157;-79
2023/12/13 03:30:59;;;;;;;31.00;15.20;;;;;;;2.46;90.62;94731.23;110318;1277;22115;-79
2023/12/13 03:33:27;;;;;;;27.70;15.80;;;;;;;2.37;90.76;94737.99;110320;1277;22148;-79
2023/12/13 03:35:56;;;;;;;34.60;16.40;;;;;;;2.28;91.22;94739.74;110308;1277;23109;-80
2023/12/13 03:38:24;;;;;;;29.10;14.90;;;;;;;2.30;91.17;94734.88;110331;1277;22132;-79
2023/12/13 03:40:52;;;;;;;30.70;17.10;;;;;;;2.30;91.04;94726.73;110306;1277;22147;-79
2023/12/13 03:43:20;;;;;;;30.40;17.60;;;;;;;2.30;91.18;94724.13;110299;1277;22132;-78
2023/12/13 03:45:48;;;;;;;25.80;14.70;;;;;;;2.32;91.17;94713.19;110321;1274;22136;-79
2023/12/13 03:48:16;;;;;;;42.60;19.60;;;;;;;2.29;91.16;94714.58;110304;1277;22207;-79
2023/12/13 03:50:45;;;;;;;53.70;26.80;;;;;;;2.26;91.21;94711.10;110306;1277;22593;-79
2023/12/13 03:53:13;;;;;;;34.40;17.50;;;;;;;2.28;91.28;94706.77;110296;1277;22929;-79
2023/12/13 03:55:41;;;;;;;27.20;14.90;;;;;;;2.31;91.30;94699.12;110287;1277;22169;-80
2023/12/13 03:58:09;;;;;;;27.70;14.40;;;;;;;2.32;91.22;94698.96;110497;1276;22211;-79
2023/12/13 04:00:37;;;;;;;23.90;15.40;;;;;;;2.31;91.09;94694.27;110323;1277;22177;-79
2023/12/13 04:03:06;;;;;;;29.50;15.10;;;;;;;2.33;90.98;94693.92;110292;1277;22182;-80
2023/12/13 04:05:34;;;;;;;30.50;16.30;;;;;;;2.38;90.97;94684.89;110247;1277;22128;-79
2023/12/13 04:08:02;;;;;;;38.20;20.60;;;;;;;2.43;90.87;94672.21;110294;1277;22134;-78
2023/12/13 04:10:31;;;;;;;27.60;15.50;;;;;;;2.41;90.64;94679.85;110297;1277;22135;-79
2023/12/13 04:12:59;;;;;;;46.00;25.60;;;;;;;2.42;90.39;94674.81;110289;1277;22121;-79
2023/12/13 04:15:27;;;;;;;28.60;17.20;;;;;;;2.39;90.44;94660.23;110287;1277;22176;-79
2023/12/13 04:17:55;;;;;;;31.00;18.50;;;;;;;2.45;90.70;94659.01;110303;1277;22865;-80
2023/12/13 04:20:24;;;;;;;39.50;23.20;;;;;;;2.45;90.29;94651.20;110243;1277;22166;-79
2023/12/13 04:22:52;;;;;;;31.40;17.70;;;;;;;2.44;90.18;94650.68;110246;1277;22311;-79
2023/12/13 04:25:20;;;;;;;26.80;16.00;;;;;;;2.36;90.37;94653.14;110287;1277;22193;-79
2023/12/13 04:27:49;;;;;;;37.20;18.00;;;;;;;2.29;90.52;94654.02;110306;1277;23093;-80
2023/12/13 04:30:17;;;;;;;23.50;14.80;;;;;;;2.33;90.47;94648.63;110287;1277;22142;-80
2023/12/13 04:32:45;;;;;;;38.60;21.80;;;;;;;2.36;90.28;94651.58;110291;1277;22305;-80
2023/12/13 04:35:14;;;;;;;29.50;18.10;;;;;;;2.34;89.98;94643.77;110299;1266;22079;-83
2023/12/13 04:37:42;;;;;;;20.80;12.70;;;;;;;2.34;90.16;94639.59;110199;1277;22349;-80
2023/12/13 04:40:10;;;;;;;19.70;13.10;;;;;;;2.36;89.74;94639.77;110300;1277;22373;-79
2023/12/13 04:42:39;;;;;;;19.50;10.90;;;;;;;2.44;90.35;94642.53;110305;1277;22925;-79
2023/12/13 04:45:08;;;;;;;20.60;11.60;;;;;;;2.55;90.44;94632.08;109883;1277;579952;-80
2023/12/13 04:47:36;;;;;;;22.20;12.60;;;;;;;2.61;89.99;94620.42;110298;1277;22195;-79
2023/12/13 04:50:06;;;;;;;34.70;17.30;;;;;;;2.60;89.38;94628.06;110291;1277;22160;-79
2023/12/13 04:52:35;;;;;;;33.80;18.60;;;;;;;2.52;88.92;94628.79;110294;1277;22098;-79
2023/12/13 04:55:04;;;;;;;54.40;29.80;;;;;;;2.44;89.32;94627.42;110296;1277;22155;-79
2023/12/13 04:57:32;;;;;;;43.60;24.30;;;;;;;2.39;89.36;94626.23;110316;1262;22128;-79
2023/12/13 05:00:01;;;;;;;32.10;18.20;;;;;;;2.39;89.61;94623.61;110278;1277;22162;-79
2023/12/13 05:02:29;;;;;;;36.10;19.10;;;;;;;2.40;89.63;94618.95;110299;1273;22733;-79
2023/12/13 05:04:57;;;;;;;35.10;17.70;;;;;;;2.27;89.85;94618.09;110292;1277;22238;-79
2023/12/13 05:07:27;;;;;;;32.70;18.10;;;;;;;2.20;90.15;94617.24;110300;1277;22984;-78
2023/12/13 05:09:56;;;;;;;25.10;14.20;;;;;;;2.20;89.90;94620.72;110277;1277;22126;-79
2023/12/13 05:12:24;;;;;;;27.90;15.10;;;;;;;2.17;90.04;94616.38;110279;1277;22112;-79
2023/12/13 05:14:52;;;;;;;17.70;10.40;;;;;;;2.13;89.99;94616.74;110296;1277;22885;-78
2023/12/13 05:17:20;;;;;;;16.40;10.50;;;;;;;2.09;89.82;94616.58;110295;1266;22197;-78
2023/12/13 05:19:48;;;;;;;16.90;9.50;;;;;;;2.09;90.18;94618.30;110290;1277;22659;-78
2023/12/13 05:22:19;;;;;;;16.20;9.80;;;;;;;2.14;89.92;94613.27;110305;1277;22125;-78
2023/12/13 05:24:48;;;;;;;16.90;10.20;;;;;;;2.12;90.04;94612.06;110291;1277;22920;-78
2023/12/13 05:27:16;;;;;;;19.10;11.40;;;;;;;2.10;90.12;94603.39;110292;1277;22224;-78
2023/12/13 05:29:44;;;;;;;23.40;12.80;;;;;;;2.10;90.37;94605.30;110263;1277;22787;-78
2023/12/13 05:32:12;;;;;;;24.60;14.20;;;;;;;2.14;90.53;94612.05;110291;1277;22833;-78
2023/12/13 05:34:41;;;;;;;30.80;17.20;;;;;;;2.18;90.74;94598.34;110295;1277;22188;-78
2023/12/13 05:37:09;;;;;;;18.70;10.90;;;;;;;2.19;90.34;94608.40;110308;1277;22208;-78
2023/12/13 05:39:37;;;;;;;17.70;10.90;;;;;;;2.15;90.79;94599.55;110306;1277;22121;-78
2023/12/13 05:42:05;;;;;;;13.00;7.90;;;;;;;2.20;90.72;94599.73;110305;1277;22791;-77
2023/12/13 05:44:33;;;;;;;18.20;10.90;;;;;;;2.22;90.59;94589.84;110296;1277;22134;-79
2023/12/13 05:47:01;;;;;;;17.40;10.50;;;;;;;2.21;90.96;94595.38;110304;1277;22125;-78
2023/12/13 05:49:30;;;;;;;15.20;10.10;;;;;;;2.24;90.75;94591.55;110290;1277;22942;-77
2023/12/13 05:51:58;;;;;;;12.70;7.70;;;;;;;2.26;90.52;94586.86;110281;1277;22156;-77
2023/12/13 05:54:26;;;;;;;19.40;11.30;;;;;;;2.25;90.46;94580.61;110286;1277;22994;-78
2023/12/13 05:56:54;;;;;;;23.30;12.50;;;;;;;2.22;90.59;94575.77;110297;1277;22247;-77
2023/12/13 05:59:22;;;;;;;13.50;7.90;;;;;;;2.24;90.51;94576.45;110135;1278;22178;-77
2023/12/13 06:01:50;;;;;;;16.00;9.50;;;;;;;2.21;90.56;94567.61;110240;1277;22462;-79
2023/12/13 06:04:19;;;;;;;16.90;8.80;;;;;;;2.23;90.79;94572.30;110218;1277;22166;-78
2023/12/13 06:06:48;;;;;;;24.80;14.60;;;;;;;2.23;90.80;94566.23;110278;1277;22178;-78
2023/12/13 06:09:16;;;;;;;33.70;19.40;;;;;;;2.24;91.04;94572.30;110272;1277;22238;-78
2023/12/13 06:11:45;;;;;;;37.80;21.80;;;;;;;2.27;91.15;94559.97;110258;1277;22279;-78
2023/12/13 06:14:13;;;;;;;21.20;11.90;;;;;;;2.28;91.14;94564.83;110233;1277;22320;-78
2023/12/13 06:16:41;;;;;;;33.50;14.70;;;;;;;2.27;91.08;94557.71;110231;1277;23053;-79
2023/12/13 06:19:09;;;;;;;45.40;20.50;;;;;;;2.30;91.22;94554.76;110256;1277;22177;-76
2023/12/13 06:21:38;;;;;;;14.40;8.20;;;;;;;2.33;91.01;94550.05;110244;1277;22238;-77
2023/12/13 06:24:06;;;;;;;10.10;6.90;;;;;;;2.31;90.79;94552.48;110227;1277;22207;-78
2023/12/13 06:26:34;;;;;;;20.60;10.40;;;;;;;2.31;90.88;94543.82;110225;1277;22429;-77
2023/12/13 06:29:03;;;;;;;18.00;9.80;;;;;;;2.32;90.97;94541.04;110196;1277;22373;-77
2023/12/13 06:31:31;;;;;;;30.60;13.80;;;;;;;2.33;90.87;94543.63;110257;1277;22237;-79
2023/12/13 06:33:59;;;;;;;26.90;14.00;;;;;;;2.32;91.48;94530.80;110216;1277;22263;-78
2023/12/13 06:36:27;;;;;;;23.80;12.00;;;;;;;2.35;91.41;94533.05;110254;1277;22314;-77
2023/12/13 06:38:56;;;;;;;13.30;7.80;;;;;;;2.39;91.26;94529.05;110265;1277;22329;-78
2023/12/13 06:41:24;;;;;;;44.40;21.20;;;;;;;2.34;91.35;94520.91;110235;1277;22261;-79
2023/12/13 06:43:52;;;;;;;29.60;16.60;;;;;;;2.33;91.75;94520.02;110216;1277;22834;-78
2023/12/13 06:46:22;;;;;;;27.00;13.90;;;;;;;2.36;91.47;94522.45;110233;1277;22643;-79
2023/12/13 06:48:51;;;;;;;34.90;17.80;;;;;;;2.37;91.72;94513.08;110241;1274;22394;-80
2023/12/13 06:51:20;;;;;;;30.60;15.20;;;;;;;2.31;92.17;94516.92;110274;1268;22173;-80
2023/12/13 06:53:48;;;;;;;32.70;17.10;;;;;;;2.26;92.51;94515.55;110269;1277;22147;-80
2023/12/13 06:56:17;;;;;;;34.60;21.40;;;;;;;2.31;92.32;94508.25;110249;1277;22168;-77
2023/12/13 06:58:45;;;;;;;39.20;25.20;;;;;;;2.35;92.05;94513.95;110261;1277;22208;-78
2023/12/13 07:01:14;;;;;;;52.10;29.30;;;;;;;2.35;92.17;94502.33;110213;1277;22255;-78
2023/12/13 07:03:42;;;;;;;36.70;19.30;;;;;;;2.34;92.38;94509.44;110227;1277;22290;-78
2023/12/13 07:06:11;;;;;;;22.60;15.00;;;;;;;2.35;92.33;94509.61;110239;1277;22213;-78
2023/12/13 07:08:39;;;;;;;24.50;15.20;;;;;;;2.38;92.46;94501.80;110231;1277;22985;-79
2023/12/13 07:11:07;;;;;;;23.80;13.90;;;;;;;2.37;92.76;94496.95;110248;1277;22176;-77
2023/12/13 07:13:35;;;;;;;19.10;11.90;;;;;;;2.41;92.59;94501.95;110261;1277;22195;-79
2023/12/13 07:16:03;;;;;;;17.70;9.70;;;;;;;2.44;92.61;94481.80;110209;1277;22218;-77
2023/12/13 07:18:32;;;;;;;16.70;10.10;;;;;;;2.51;92.42;94485.23;110234;1264;22219;-76
2023/12/13 07:21:00;;;;;;;14.60;8.80;;;;;;;2.55;92.11;94479.30;110226;1277;22343;-77
2023/12/13 07:23:31;;;;;;;15.40;10.30;;;;;;;2.54;91.88;94471.52;110219;1277;22208;-80
2023/12/13 07:26:00;;;;;;;22.50;13.30;;;;;;;2.53;91.97;94463.70;110250;1277;22167;-77
2023/12/13 07:28:29;;;;;;;19.50;10.90;;;;;;;2.53;92.20;94465.95;110235;1277;22412;-77
2023/12/13 07:30:57;;;;;;;17.70;9.60;;;;;;;2.49;92.48;94452.45;110219;1277;22201;-78
2023/12/13 07:33:38;;;;;;;25.80;14.90;;;;;;;2.54;92.30;94454.84;110214;1277;22666;-80
2023/12/13 07:36:08;;;;;;;30.00;17.20;;;;;;;2.54;92.76;94443.91;110219;1277;22247;-80
2023/12/13 07:38:36;;;;;;;17.00;10.10;;;;;;;2.58;92.59;94439.37;110222;1277;22182;-79
2023/12/13 07:41:04;;;;;;;15.20;9.60;;;;;;;2.66;92.62;94436.37;110211;1277;22221;-78
2023/12/13 07:43:32;;;;;;;12.70;8.00;;;;;;;2.70;92.35;94438.42;110232;1277;22216;-79
2023/12/13 07:46:00;;;;;;;15.30;9.80;;;;;;;2.71;92.25;94431.46;110235;1271;22203;-78
2023/12/13 07:48:29;;;;;;;15.90;10.20;;;;;;;2.74;92.27;94427.11;110245;1277;22212;-78
2023/12/13 07:50:58;;;;;;;20.00;12.40;;;;;;;2.75;92.59;94415.47;110237;1277;22245;-77
2023/12/13 07:53:27;;;;;;;22.00;13.50;;;;;;;2.78;92.78;94413.36;110266;1277;22407;-78
2023/12/13 07:55:55;;;;;;;22.90;13.40;;;;;;;2.85;92.66;94403.92;110280;1277;22224;-78
2023/12/13 07:58:23;;;;;;;40.70;22.80;;;;;;;2.88;92.62;94399.02;110242;1277;22188;-78
2023/12/13 08:00:52;;;;;;;23.20;12.70;;;;;;;2.91;92.47;94400.05;110291;1277;22973;-78
2023/12/13 08:03:20;;;;;;;25.20;14.60;;;;;;;2.95;92.23;94396.55;110255;1277;22129;-78
2023/12/13 08:05:48;;;;;;;28.00;17.90;;;;;;;2.95;92.69;94400.89;110257;1277;22131;-76
2023/12/13 08:08:17;;;;;;;19.40;11.80;;;;;;;2.98;92.58;94403.46;110266;1277;22266;-77
2023/12/13 08:10:46;;;;;;;24.10;14.20;;;;;;;3.02;92.67;94391.62;110272;1277;22255;-77
2023/12/13 08:13:15;;;;;;;27.40;15.40;;;;;;;3.03;92.49;94402.90;110232;1277;22943;-78
2023/12/13 08:15:45;;;;;;;31.20;18.30;;;;;;;2.99;92.99;94384.34;110295;1277;22215;-78
2023/12/13 08:18:13;;;;;;;28.70;15.40;;;;;;;3.02;93.01;94386.93;110414;1276;22256;-76
2023/12/13 08:20:43;;;;;;;33.30;18.60;;;;;;;3.04;92.79;94385.35;110276;1277;23012;-78
2023/12/13 08:23:12;;;;;;;27.50;16.20;;;;;;;3.09;92.96;94384.09;110260;1277;22177;-77
2023/12/13 08:25:41;;;;;;;31.60;19.00;;;;;;;3.11;93.10;94376.77;110290;1277;22198;-77
2023/12/13 08:28:10;;;;;;;25.10;16.40;;;;;;;3.18;93.11;94370.09;110255;1277;22323;-81
2023/12/13 08:30:38;;;;;;;19.30;12.00;;;;;;;3.21;92.83;94365.37;110217;1266;23217;-78
2023/12/13 08:33:06;;;;;;;21.00;12.80;;;;;;;3.26;92.73;94364.45;110208;1277;23041;-76
2023/12/13 08:35:35;;;;;;;139.60;63.90;;;;;;;3.33;92.47;94366.66;110243;1264;22128;-79
2023/12/13 08:38:03;;;;;;;72.20;45.50;;;;;;;3.35;92.23;94356.72;110279;1277;22335;-81
2023/12/13 08:40:31;;;;;;;25.40;15.80;;;;;;;3.40;92.57;94350.40;110246;1277;22207;-80
2023/12/13 08:43:00;;;;;;;29.40;19.40;;;;;;;3.43;92.64;94351.76;110250;1277;22180;-80
2023/12/13 08:45:28;;;;;;;39.10;26.10;;;;;;;3.45;92.60;94352.42;110225;1277;22377;-78
2023/12/13 08:47:56;;;;;;;44.10;25.40;;;;;;;3.49;92.24;94350.99;110241;1277;23048;-79
2023/12/13 08:50:24;;;;;;;32.50;21.30;;;;;;;3.52;92.14;94357.39;110280;1277;22332;-78
2023/12/13 08:52:54;;;;;;;37.10;24.60;;;;;;;3.52;92.14;94350.27;110260;1277;22277;-80
2023/12/13 08:55:22;;;;;;;92.30;55.90;;;;;;;3.55;92.16;94349.87;110226;1277;22224;-81
2023/12/13 08:57:51;;;;;;;43.40;32.40;;;;;;;3.55;92.16;94348.66;110255;1277;22954;-79
2023/12/13 09:00:19;;;;;;;75.80;51.40;;;;;;;3.58;92.17;94341.16;110231;1277;22199;-82
2023/12/13 09:02:48;;;;;;;43.80;29.30;;;;;;;3.60;92.06;94344.62;110256;1277;22245;-81
2023/12/13 09:05:16;;;;;;;28.20;19.70;;;;;;;3.64;92.19;94340.05;110273;1277;23068;-81
2023/12/13 09:07:45;;;;;;;33.40;23.00;;;;;;;3.71;92.38;94344.66;110265;1277;22961;-80
2023/12/13 09:10:13;;;;;;;26.60;17.60;;;;;;;3.75;92.18;94339.56;110244;1277;22395;-80
2023/12/13 09:12:42;;;;;;;18.80;11.80;;;;;;;3.82;92.31;94339.65;110239;1277;22402;-80
2023/12/13 09:15:10;;;;;;;21.20;13.40;;;;;;;3.80;91.58;94343.66;110273;1274;22189;-79
2023/12/13 09:17:40;;;;;;;21.50;16.20;;;;;;;3.85;91.99;94339.08;110253;1277;22211;-80
2023/12/13 09:20:09;;;;;;;33.40;25.50;;;;;;;3.91;91.70;94348.05;110243;1277;22652;-80
2023/12/13 09:22:38;;;;;;;15.40;10.70;;;;;;;3.88;91.19;94340.27;110253;1277;22208;-83
2023/12/13 09:25:07;;;;;;;16.10;12.30;;;;;;;3.89;91.45;94336.42;110286;1277;22168;-79
2023/12/13 09:27:36;;;;;;;18.40;16.20;;;;;;;3.95;91.77;94340.52;110282;1277;22279;-80
2023/12/13 09:30:05;;;;;;;16.00;10.00;;;;;;;3.99;91.53;94329.16;110141;1277;22917;-83
2023/12/13 09:32:33;;;;;;;13.00;9.30;;;;;;;4.04;91.43;94326.84;110267;1277;22226;-84
2023/12/13 09:35:02;;;;;;;10.00;7.30;;;;;;;4.14;91.78;94316.95;110273;1274;22232;-81
2023/12/13 09:37:30;;;;;;;15.60;9.70;;;;;;;4.19;91.18;94303.27;110288;1277;23078;-81
2023/12/13 09:39:59;;;;;;;15.30;10.00;;;;;;;4.16;90.54;94305.42;110149;1277;23370;-82
2023/12/13 09:42:30;;;;;;;68.90;42.70;;;;;;;4.06;90.39;94309.58;110235;1277;22206;-83
2023/12/13 09:45:04;;;;;;;44.90;26.00;;;;;;;4.01;90.56;94307.39;110271;1277;23155;-81
2023/12/13 09:47:33;;;;;;;32.10;27.80;;;;;;;3.96;90.65;94305.71;110265;1277;22694;-83
2023/12/13 09:50:02;;;;;;;30.80;22.10;;;;;;;3.97;90.89;94304.48;110263;1277;22245;-79
2023/12/13 09:52:32;;;;;;;28.40;19.70;;;;;;;3.95;91.10;94294.42;110211;1277;22260;-81
2023/12/13 09:55:03;;;;;;;20.70;14.00;;;;;;;3.95;91.17;94291.46;110200;1277;22222;-80
2023/12/13 09:57:31;;;;;;;11.00;7.70;;;;;;;3.91;91.14;94292.21;110253;1277;22216;-79
2023/12/13 09:59:59;;;;;;;14.80;9.80;;;;;;;3.90;90.88;94288.92;110254;1277;22223;-82
2023/12/13 10:02:27;;;;;;;26.70;14.30;;;;;;;3.87;91.12;94293.13;110237;1276;22194;-79
2023/12/13 10:04:59;;;;;;;29.00;16.10;;;;;;;3.78;91.20;94300.56;110184;1277;22179;-79
2023/12/13 10:07:27;;;;;;;33.60;17.30;;;;;;;3.70;91.50;94296.48;110251;1277;22972;-78
2023/12/13 10:09:56;;;;;;;25.30;14.80;;;;;;;3.69;91.55;94290.59;110256;1277;22264;-80
2023/12/13 10:12:27;;;;;;;16.10;10.80;;;;;;;3.67;91.65;94282.09;110273;1277;22217;-77
2023/12/13 10:14:55;;;;;;;21.00;10.90;;;;;;;3.65;91.72;94282.81;110236;1277;22200;-78
2023/12/13 10:17:24;;;;;;;16.20;10.50;;;;;;;3.64;91.66;94276.92;110290;1277;22183;-78
2023/12/13 10:19:52;;;;;;;15.60;10.50;;;;;;;3.67;91.78;94277.39;110262;1277;22182;-78
2023/12/13 10:22:21;;;;;;;26.70;14.90;;;;;;;3.66;92.07;94275.68;110307;1277;23056;-78
2023/12/13 10:24:49;;;;;;;15.00;9.30;;;;;;;3.66;91.95;94264.89;110309;1277;22202;-78
2023/12/13 10:27:17;;;;;;;17.50;10.60;;;;;;;3.68;92.35;94259.48;110288;1277;22153;-78
2023/12/13 10:29:46;;;;;;;13.20;8.90;;;;;;;3.70;92.33;94243.11;110313;1277;22212;-78
2023/12/13 10:32:15;;;;;;;21.20;12.40;;;;;;;3.76;92.37;94249.10;110327;1277;22156;-78
2023/12/13 10:34:43;;;;;;;16.40;11.20;;;;;;;3.74;92.34;94249.82;110147;1277;22143;-78
2023/12/13 10:37:12;;;;;;;10.60;7.50;;;;;;;3.79;92.59;94240.71;110315;1277;22842;-78
2023/12/13 10:39:44;;;;;;;18.40;11.00;;;;;;;3.86;92.56;94237.13;110321;1277;22187;-78
2023/12/13 10:42:17;;;;;;;14.40;9.10;;;;;;;3.88;92.07;94225.29;110308;1277;22815;-78
2023/12/13 10:44:49;;;;;;;;;;;;;;;3.95;92.26;94222.39;110315;1278;22215;-78
2023/12/13 10:47:26;;;;;;;17.80;11.40;;;;;;;4.05;92.48;94212.67;110339;1277;22176;-78
2023/12/13 10:49:55;;;;;;;16.90;10.30;;;;;;;4.17;92.28;94211.26;110296;1277;22133;-78
2023/12/13 10:52:30;;;;;;;12.30;8.60;;;;;;;4.23;91.73;94205.05;110279;1277;22206;-78
2023/12/13 10:54:58;;;;;;;14.90;10.00;;;;;;;4.31;91.73;94197.10;110346;1277;22150;-78
2023/12/13 10:57:26;;;;;;;16.50;10.10;;;;;;;4.40;91.77;94203.91;110329;1277;22184;-78
2023/12/13 10:59:55;;;;;;;15.30;9.20;;;;;;;4.42;91.42;94193.77;110317;1277;22188;-78
2023/12/13 11:02:28;;;;;;;12.60;7.40;;;;;;;4.50;91.57;94193.47;110328;1277;22138;-78
2023/12/13 11:04:56;;;;;;;11.50;7.80;;;;;;;4.53;91.15;94184.00;110286;1277;22834;-78
2023/12/13 11:07:24;;;;;;;13.70;9.20;;;;;;;4.58;91.26;94188.27;110331;1277;22408;-79
2023/12/13 11:09:54;;;;;;;34.80;19.90;;;;;;;4.59;90.74;94174.69;110314;1277;22420;-78
2023/12/13 11:12:24;;;;;;;12.50;8.50;;;;;;;4.67;91.09;94170.69;110309;1277;22188;-78
2023/12/13 11:14:52;;;;;;;12.20;8.00;;;;;;;4.70;90.36;94170.46;110315;1277;22140;-78
2023/12/13 11:17:21;;;;;;;13.00;8.10;;;;;;;4.72;90.36;94165.55;110334;1277;22136;-78
2023/12/13 11:19:52;;;;;;;12.20;7.90;;;;;;;4.77;90.43;94168.73;110336;1277;22142;-78
2023/12/13 11:22:23;;;;;;;12.90;8.30;;;;;;;4.74;89.90;94158.02;110338;1277;22156;-78
2023/12/13 11:25:06;;;;;;;15.80;10.70;;;;;;;4.75;89.82;94153.65;110322;1277;22367;-78